Time;durP1;ratioP1;P1;durP2;ratioP2;P2;SDS_P1;SDS_P2;PMS_P1;PMS_P2;Temp;Humidity;BMP_temperature;BMP_pressure;BME280_temperature;BME280_humidity;BME280_pressure;Samples;Min_cycle;Max_cycle;Signal;HPM_P1;HPM_P2
2023/12/30 00:00:25;;;;;;;11.40;2.47;;;;;;;;;;5111478;28;20028;-75
2023/12/30 00:02:51;;;;;;;16.20;2.58;;;;;;;;;;5110572;28;20386;-74
2023/12/30 00:05:18;;;;;;;17.15;2.03;;;;;;;;;;5111588;28;20027;-74
2023/12/30 00:07:44;;;;;;;9.73;2.10;;;;;;;;;;5113263;28;20023;-75
2023/12/30 00:10:10;;;;;;;13.68;2.28;;;;;;;;;;5115677;28;20031;-74
2023/12/30 00:12:36;;;;;;;9.90;2.42;;;;;;;;;;5098592;28;20023;-74
2023/12/30 00:15:03;;;;;;;10.07;2.40;;;;;;;;;;5096090;28;20058;-74
2023/12/30 00:17:29;;;;;;;17.30;2.33;;;;;;;;;;5111363;28;20023;-74
2023/12/30 00:19:55;;;;;;;10.40;2.05;;;;;;;;;;5111268;28;20492;-74
2023/12/30 00:22:21;;;;;;;19.02;2.28;;;;;;;;;;5110678;28;20099;-74
2023/12/30 00:24:47;;;;;;;10.00;2.13;;;;;;;;;;5110998;28;20391;-75
2023/12/30 00:27:13;;;;;;;21.58;2.47;;;;;;;;;;5111019;28;20073;-75
2023/12/30 00:29:39;;;;;;;13.00;2.03;;;;;;;;;;5110672;28;20434;-74
2023/12/30 00:32:06;;;;;;;13.88;2.13;;;;;;;;;;5111421;28;20470;-74
2023/12/30 00:34:33;;;;;;;12.23;2.42;;;;;;;;;;5112778;28;20031;-74
2023/12/30 00:36:59;;;;;;;11.93;1.98;;;;;;;;;;5111944;28;20051;-74
2023/12/30 00:39:25;;;;;;;9.80;1.92;;;;;;;;;;5111243;28;20035;-74
2023/12/30 00:41:51;;;;;;;10.98;2.17;;;;;;;;;;5109734;28;20110;-73
2023/12/30 00:44:17;;;;;;;16.15;1.95;;;;;;;;;;5110656;28;20023;-74
2023/12/30 00:46:43;;;;;;;13.52;2.45;;;;;;;;;;5110855;28;20441;-74
2023/12/30 00:49:09;;;;;;;13.25;2.60;;;;;;;;;;5110817;28;20110;-75
2023/12/30 00:51:35;;;;;;;17.73;2.45;;;;;;;;;;5110133;28;20016;-74
2023/12/30 00:54:02;;;;;;;9.38;2.10;;;;;;;;;;5110267;28;20107;-74
2023/12/30 00:56:28;;;;;;;16.55;2.28;;;;;;;;;;5110972;28;20023;-74
2023/12/30 00:58:54;;;;;;;12.18;2.35;;;;;;;;;;5110590;28;20034;-73
2023/12/30 01:01:20;;;;;;;16.27;2.80;;;;;;;;;;5106804;28;20031;-75
2023/12/30 01:03:46;;;;;;;13.98;2.42;;;;;;;;;;5107643;28;20028;-75
2023/12/30 01:06:12;;;;;;;15.38;3.10;;;;;;;;;;5104514;28;20035;-75
2023/12/30 01:08:38;;;;;;;12.60;2.45;;;;;;;;;;5112386;28;20023;-75
2023/12/30 01:11:04;;;;;;;11.85;2.92;;;;;;;;;;5118051;28;20039;-74
2023/12/30 01:13:30;;;;;;;12.93;2.50;;;;;;;;;;5113819;28;20119;-75
2023/12/30 01:15:56;;;;;;;9.20;2.17;;;;;;;;;;5112257;28;20088;-74
2023/12/30 01:18:23;;;;;;;11.73;2.30;;;;;;;;;;5113637;28;20027;-74
2023/12/30 01:20:49;;;;;;;7.63;1.63;;;;;;;;;;5115897;28;20019;-73
2023/12/30 01:23:15;;;;;;;7.35;1.60;;;;;;;;;;5131007;28;20038;-74
2023/12/30 01:25:42;;;;;;;8.45;1.77;;;;;;;;;;5136635;28;20012;-74
2023/12/30 01:28:08;;;;;;;9.82;1.92;;;;;;;;;;5136748;28;20020;-73
2023/12/30 01:30:36;;;;;;;5.40;1.45;;;;;;;;;;5136735;27;20019;-74
2023/12/30 01:33:02;;;;;;;9.38;1.60;;;;;;;;;;5135961;28;20139;-74
2023/12/30 01:35:28;;;;;;;8.73;1.45;;;;;;;;;;5136394;27;20033;-72
2023/12/30 01:37:54;;;;;;;5.75;1.65;;;;;;;;;;5136206;27;20045;-72
2023/12/30 01:40:20;;;;;;;6.00;1.30;;;;;;;;;;5118390;27;20336;-74
2023/12/30 01:42:46;;;;;;;5.80;1.85;;;;;;;;;;5135524;27;20059;-74
2023/12/30 01:45:12;;;;;;;6.93;1.75;;;;;;;;;;5130907;27;20028;-75
2023/12/30 01:47:39;;;;;;;7.13;1.30;;;;;;;;;;5127395;28;20068;-74
2023/12/30 01:50:05;;;;;;;3.97;1.20;;;;;;;;;;5115619;28;20066;-75
2023/12/30 01:52:32;;;;;;;11.48;1.60;;;;;;;;;;5113529;28;20594;-74
2023/12/30 01:54:58;;;;;;;4.03;1.30;;;;;;;;;;5113890;28;20035;-74
2023/12/30 01:57:24;;;;;;;7.00;1.38;;;;;;;;;;5114162;28;20028;-76
2023/12/30 01:59:51;;;;;;;11.70;1.70;;;;;;;;;;5113636;28;20106;-74
2023/12/30 02:02:17;;;;;;;8.02;1.75;;;;;;;;;;5113305;28;20016;-74
2023/12/30 02:04:43;;;;;;;5.43;1.42;;;;;;;;;;5113805;28;20081;-74
2023/12/30 02:07:09;;;;;;;4.38;1.42;;;;;;;;;;5113768;28;20030;-74
2023/12/30 02:09:36;;;;;;;5.25;1.70;;;;;;;;;;5113550;28;20110;-73
2023/12/30 02:12:03;;;;;;;10.50;1.80;;;;;;;;;;5112828;28;20020;-74
2023/12/30 02:14:30;;;;;;;7.90;2.05;;;;;;;;;;5113619;28;20030;-74
2023/12/30 02:16:59;;;;;;;14.35;1.83;;;;;;;;;;5113670;28;20028;-73
2023/12/30 02:19:25;;;;;;;13.40;1.90;;;;;;;;;;5114534;28;20027;-74
2023/12/30 02:21:52;;;;;;;15.10;1.98;;;;;;;;;;5114339;28;20027;-74
2023/12/30 02:24:20;;;;;;;13.23;1.70;;;;;;;;;;5115057;28;20478;-74
2023/12/30 02:26:46;;;;;;;10.00;2.05;;;;;;;;;;5114331;28;20367;-74
2023/12/30 02:29:12;;;;;;;12.07;1.67;;;;;;;;;;5113584;28;20031;-74
2023/12/30 02:31:45;;;;;;;19.10;2.22;;;;;;;;;;5113008;28;20038;-75
2023/12/30 02:34:20;;;;;;;19.42;2.70;;;;;;;;;;5113182;28;20486;-75
2023/12/30 02:36:47;;;;;;;14.77;2.00;;;;;;;;;;5111979;28;20479;-75
2023/12/30 02:39:13;;;;;;;11.38;2.08;;;;;;;;;;5112913;28;20428;-75
2023/12/30 02:41:39;;;;;;;11.90;1.95;;;;;;;;;;5112952;28;20028;-75
2023/12/30 02:44:05;;;;;;;12.20;1.85;;;;;;;;;;5113547;28;20102;-74
2023/12/30 02:46:32;;;;;;;21.52;2.40;;;;;;;;;;5114022;28;20059;-74
2023/12/30 02:49:02;;;;;;;9.77;1.58;;;;;;;;;;5095566;28;20193;-75
2023/12/30 02:51:28;;;;;;;17.05;2.10;;;;;;;;;;5112867;28;20112;-74
2023/12/30 02:53:54;;;;;;;14.38;2.08;;;;;;;;;;5113731;28;20095;-73
2023/12/30 02:56:21;;;;;;;12.82;2.03;;;;;;;;;;5114105;28;20028;-74
2023/12/30 02:58:52;;;;;;;11.77;1.77;;;;;;;;;;5113658;28;20027;-75
2023/12/30 03:01:18;;;;;;;12.98;2.00;;;;;;;;;;5112964;28;20073;-74
2023/12/30 03:03:44;;;;;;;14.82;1.92;;;;;;;;;;5113940;28;20490;-75
2023/12/30 03:06:13;;;;;;;15.68;1.80;;;;;;;;;;5114317;28;20020;-73
2023/12/30 03:08:39;;;;;;;13.27;1.83;;;;;;;;;;5114588;28;20483;-73
2023/12/30 03:11:05;;;;;;;18.70;2.22;;;;;;;;;;5115347;28;20031;-74
2023/12/30 03:13:31;;;;;;;18.10;2.15;;;;;;;;;;5104720;28;20154;-74
2023/12/30 03:15:57;;;;;;;15.45;2.00;;;;;;;;;;5109060;28;20035;-74
2023/12/30 03:18:23;;;;;;;17.05;1.95;;;;;;;;;;5092284;28;20016;-74
2023/12/30 03:20:49;;;;;;;18.00;2.42;;;;;;;;;;5113110;28;20031;-73
2023/12/30 03:23:15;;;;;;;11.95;1.85;;;;;;;;;;5115212;28;20027;-73
2023/12/30 03:25:41;;;;;;;10.77;1.77;;;;;;;;;;5117302;28;20134;-74
2023/12/30 03:28:07;;;;;;;22.55;3.00;;;;;;;;;;5113635;28;20030;-73
2023/12/30 03:30:33;;;;;;;18.52;2.42;;;;;;;;;;5116369;28;20355;-73
2023/12/30 03:32:59;;;;;;;18.08;2.53;;;;;;;;;;5112323;28;20077;-73
2023/12/30 03:35:25;;;;;;;13.75;1.63;;;;;;;;;;5111694;28;20035;-74
2023/12/30 03:37:51;;;;;;;20.83;2.15;;;;;;;;;;5112784;28;20034;-73
2023/12/30 03:40:17;;;;;;;15.93;2.33;;;;;;;;;;5093277;28;20477;-74
2023/12/30 03:42:43;;;;;;;16.73;1.92;;;;;;;;;;5111226;28;20036;-74
2023/12/30 03:45:09;;;;;;;21.40;2.47;;;;;;;;;;5111272;28;20024;-74
2023/12/30 03:47:35;;;;;;;17.90;2.25;;;;;;;;;;5111746;28;20034;-74
2023/12/30 03:50:01;;;;;;;17.23;2.00;;;;;;;;;;5111997;28;20078;-73
2023/12/30 03:52:28;;;;;;;12.27;1.80;;;;;;;;;;5112304;28;20015;-75
2023/12/30 03:54:55;;;;;;;18.90;2.38;;;;;;;;;;5113156;28;20034;-75
2023/12/30 03:57:21;;;;;;;13.10;2.05;;;;;;;;;;5113057;28;20023;-74
2023/12/30 03:59:47;;;;;;;17.90;2.33;;;;;;;;;;5112918;28;20024;-74
2023/12/30 04:02:17;;;;;;;17.15;2.38;;;;;;;;;;5112413;28;20062;-75
2023/12/30 04:04:43;;;;;;;20.55;2.90;;;;;;;;;;5112623;28;20466;-74
2023/12/30 04:07:09;;;;;;;24.85;2.50;;;;;;;;;;5112625;28;20030;-73
2023/12/30 04:09:35;;;;;;;28.42;3.08;;;;;;;;;;5112381;28;20474;-75
2023/12/30 04:12:01;;;;;;;24.67;2.80;;;;;;;;;;5112531;28;20069;-75
2023/12/30 04:14:27;;;;;;;21.33;2.58;;;;;;;;;;5112248;28;20456;-75
2023/12/30 04:16:53;;;;;;;22.90;2.58;;;;;;;;;;5112578;28;20031;-74
2023/12/30 04:19:19;;;;;;;11.52;2.05;;;;;;;;;;5094348;28;20027;-73
2023/12/30 04:21:45;;;;;;;11.93;2.08;;;;;;;;;;5112587;28;20114;-74
2023/12/30 04:24:11;;;;;;;16.38;2.22;;;;;;;;;;5112355;28;20070;-74
2023/12/30 04:26:37;;;;;;;15.07;2.63;;;;;;;;;;5112477;28;20028;-74
2023/12/30 04:29:03;;;;;;;17.83;1.70;;;;;;;;;;5110718;28;20076;-74
2023/12/30 04:31:29;;;;;;;28.27;3.17;;;;;;;;;;5110754;28;20052;-73
2023/12/30 04:33:55;;;;;;;15.38;2.83;;;;;;;;;;5111651;28;20102;-73
2023/12/30 04:36:21;;;;;;;26.05;5.22;;;;;;;;;;5109380;28;20031;-78
2023/12/30 04:38:47;;;;;;;24.17;2.75;;;;;;;;;;5105000;28;20023;-76
2023/12/30 04:41:13;;;;;;;11.05;2.20;;;;;;;;;;5086677;28;20380;-77
2023/12/30 04:43:39;;;;;;;18.10;3.03;;;;;;;;;;5104802;28;20028;-74
2023/12/30 04:46:05;;;;;;;30.25;2.75;;;;;;;;;;5100725;28;20474;-73
2023/12/30 04:48:32;;;;;;;31.52;3.53;;;;;;;;;;5090800;28;20107;-76
2023/12/30 04:50:58;;;;;;;18.67;3.00;;;;;;;;;;5091782;28;20036;-75
2023/12/30 04:53:25;;;;;;;20.33;2.70;;;;;;;;;;5090286;28;20039;-74
2023/12/30 04:55:51;;;;;;;21.98;2.75;;;;;;;;;;5090467;28;20027;-74
2023/12/30 04:58:17;;;;;;;19.33;2.83;;;;;;;;;;5090713;28;20391;-73
2023/12/30 05:00:43;;;;;;;12.30;2.17;;;;;;;;;;5090531;28;20142;-73
2023/12/30 05:03:09;;;;;;;13.63;2.17;;;;;;;;;;5090215;28;20114;-74
2023/12/30 05:05:35;;;;;;;15.52;3.60;;;;;;;;;;5090682;28;20552;-74
2023/12/30 05:08:02;;;;;;;15.13;2.88;;;;;;;;;;5071917;28;20244;-75
2023/12/30 05:10:28;;;;;;;20.33;3.10;;;;;;;;;;5090589;28;20028;-76
2023/12/30 05:12:54;;;;;;;20.38;2.78;;;;;;;;;;5090384;28;20032;-76
2023/12/30 05:15:20;;;;;;;25.75;2.80;;;;;;;;;;5092258;28;20028;-76
2023/12/30 05:17:46;;;;;;;14.30;2.53;;;;;;;;;;5099842;28;20076;-73
2023/12/30 05:20:12;;;;;;;15.80;2.30;;;;;;;;;;5098585;28;20058;-74
2023/12/30 05:22:40;;;;;;;32.05;2.97;;;;;;;;;;5098652;28;20024;-75
2023/12/30 05:25:06;;;;;;;27.20;4.20;;;;;;;;;;5097734;28;20020;-75
2023/12/30 05:27:32;;;;;;;24.52;2.97;;;;;;;;;;5094790;28;20410;-74
2023/12/30 05:29:58;;;;;;;17.88;2.70;;;;;;;;;;5094255;28;20020;-74
2023/12/30 05:32:24;;;;;;;18.77;2.97;;;;;;;;;;5093844;28;20493;-74
2023/12/30 05:34:50;;;;;;;29.05;4.25;;;;;;;;;;5093606;28;20105;-74
2023/12/30 05:37:16;;;;;;;17.92;2.88;;;;;;;;;;5094202;28;20046;-74
2023/12/30 05:39:42;;;;;;;32.75;2.83;;;;;;;;;;5094775;28;20031;-74
2023/12/30 05:42:08;;;;;;;20.15;3.83;;;;;;;;;;5094829;28;20028;-74
2023/12/30 05:44:34;;;;;;;32.90;3.97;;;;;;;;;;5095708;28;20034;-76
2023/12/30 05:47:00;;;;;;;32.25;3.30;;;;;;;;;;5096873;28;20020;-74
2023/12/30 05:49:26;;;;;;;18.08;2.92;;;;;;;;;;5097156;28;20047;-74
2023/12/30 05:51:52;;;;;;;15.35;2.70;;;;;;;;;;5094585;28;20020;-75
2023/12/30 05:54:18;;;;;;;25.85;3.15;;;;;;;;;;5093905;28;20020;-73
2023/12/30 05:56:44;;;;;;;23.90;3.15;;;;;;;;;;5093839;28;20034;-74
2023/12/30 05:59:10;;;;;;;22.50;4.93;;;;;;;;;;5075482;28;20134;-75
2023/12/30 06:01:43;;;;;;;28.27;5.65;;;;;;;;;;5092812;28;20020;-75
2023/12/30 06:04:09;;;;;;;17.30;2.53;;;;;;;;;;5093393;28;20362;-74
2023/12/30 06:06:36;;;;;;;25.65;2.70;;;;;;;;;;5093761;28;20463;-74
2023/12/30 06:09:02;;;;;;;22.55;3.53;;;;;;;;;;5093822;28;20153;-74
2023/12/30 06:11:28;;;;;;;14.90;2.30;;;;;;;;;;5093942;28;20093;-74
2023/12/30 06:13:54;;;;;;;18.98;3.22;;;;;;;;;;5075738;28;20115;-74
2023/12/30 06:16:21;;;;;;;23.45;2.92;;;;;;;;;;5094192;28;20050;-75
2023/12/30 06:18:47;;;;;;;16.02;2.42;;;;;;;;;;5097672;28;20031;-75
2023/12/30 06:21:13;;;;;;;21.90;2.70;;;;;;;;;;5078851;28;20079;-74
2023/12/30 06:23:39;;;;;;;21.10;2.90;;;;;;;;;;5077767;28;20027;-74
2023/12/30 06:26:05;;;;;;;23.15;2.92;;;;;;;;;;5097785;28;20044;-73
2023/12/30 06:28:30;;;;;;;25.13;3.10;;;;;;;;;;5098100;28;20027;-73
2023/12/30 06:30:57;;;;;;;25.50;3.55;;;;;;;;;;5080780;28;20012;-75
2023/12/30 06:33:23;;;;;;;26.20;3.25;;;;;;;;;;5095140;28;20534;-74
2023/12/30 06:35:49;;;;;;;30.08;3.72;;;;;;;;;;5095820;28;20099;-74
2023/12/30 06:38:16;;;;;;;24.50;3.42;;;;;;;;;;5099118;28;20031;-73
2023/12/30 06:40:42;;;;;;;23.52;3.78;;;;;;;;;;5099483;28;20084;-73
2023/12/30 06:43:09;;;;;;;25.30;3.33;;;;;;;;;;5122357;27;20080;-74
2023/12/30 06:45:35;;;;;;;21.70;3.65;;;;;;;;;;5130819;27;20028;-74
2023/12/30 06:48:01;;;;;;;17.75;2.58;;;;;;;;;;5112211;28;20023;-74
2023/12/30 06:50:27;;;;;;;24.70;3.30;;;;;;;;;;5123182;28;20051;-73
2023/12/30 06:52:56;;;;;;;23.73;4.03;;;;;;;;;;5108652;28;20085;-75
2023/12/30 06:55:23;;;;;;;20.25;2.65;;;;;;;;;;5100651;28;20066;-75
2023/12/30 06:57:49;;;;;;;17.85;2.90;;;;;;;;;;5106919;28;20028;-74
2023/12/30 07:00:15;;;;;;;26.15;3.33;;;;;;;;;;5106277;28;20035;-74
2023/12/30 07:02:41;;;;;;;26.58;2.85;;;;;;;;;;5106418;28;20771;-73
2023/12/30 07:05:10;;;;;;;21.85;2.58;;;;;;;;;;5114314;28;20043;-74
2023/12/30 07:07:36;;;;;;;20.95;2.65;;;;;;;;;;5110974;28;20193;-72
2023/12/30 07:10:05;;;;;;;19.52;2.85;;;;;;;;;;5110658;28;20081;-75
2023/12/30 07:12:31;;;;;;;19.02;2.55;;;;;;;;;;5105164;28;20062;-77
2023/12/30 07:15:00;;;;;;;19.70;2.63;;;;;;;;;;5113388;28;20023;-77
2023/12/30 07:17:26;;;;;;;17.13;2.50;;;;;;;;;;5110983;28;20081;-77
2023/12/30 07:19:52;;;;;;;16.60;3.17;;;;;;;;;;5122498;28;20016;-75
2023/12/30 07:22:19;;;;;;;20.90;3.60;;;;;;;;;;5121991;28;20027;-77
2023/12/30 07:24:46;;;;;;;16.83;2.65;;;;;;;;;;5116471;28;20027;-77
2023/12/30 07:27:13;;;;;;;18.92;3.00;;;;;;;;;;5104500;28;20144;-75
2023/12/30 07:29:39;;;;;;;17.27;2.50;;;;;;;;;;5125132;28;20023;-75
2023/12/30 07:32:05;;;;;;;16.25;2.30;;;;;;;;;;5114251;28;20481;-74
2023/12/30 07:34:31;;;;;;;20.33;2.83;;;;;;;;;;5113653;28;20541;-75
2023/12/30 07:36:58;;;;;;;19.30;3.30;;;;;;;;;;5112633;28;20043;-74
2023/12/30 07:39:24;;;;;;;17.75;2.78;;;;;;;;;;5112339;28;20068;-75
2023/12/30 07:41:50;;;;;;;14.50;3.35;;;;;;;;;;5111496;28;20066;-75
2023/12/30 07:44:16;;;;;;;15.75;3.03;;;;;;;;;;5111450;28;20059;-75
2023/12/30 07:46:42;;;;;;;18.30;2.70;;;;;;;;;;5112200;28;20049;-75
2023/12/30 07:49:08;;;;;;;19.27;2.83;;;;;;;;;;5111528;28;20529;-74
2023/12/30 07:51:34;;;;;;;21.40;3.38;;;;;;;;;;5111882;28;20103;-76
2023/12/30 07:54:00;;;;;;;25.90;2.92;;;;;;;;;;5093799;28;20110;-76
2023/12/30 07:56:26;;;;;;;22.42;2.70;;;;;;;;;;5111933;28;20054;-76
2023/12/30 07:58:52;;;;;;;24.92;2.80;;;;;;;;;;5093394;28;20023;-74
2023/12/30 08:01:18;;;;;;;19.05;4.53;;;;;;;;;;5111932;28;20027;-74
2023/12/30 08:03:44;;;;;;;20.05;2.65;;;;;;;;;;5111340;28;20020;-73
2023/12/30 08:06:10;;;;;;;19.70;2.85;;;;;;;;;;5112858;28;20076;-76
2023/12/30 08:08:36;;;;;;;27.33;3.00;;;;;;;;;;5112279;28;20068;-75
2023/12/30 08:11:02;;;;;;;22.73;2.58;;;;;;;;;;5111040;28;20154;-74
2023/12/30 08:13:28;;;;;;;24.58;2.60;;;;;;;;;;5110544;28;20118;-74
2023/12/30 08:15:54;;;;;;;28.13;3.38;;;;;;;;;;5111396;28;20064;-74
2023/12/30 08:18:22;;;;;;;22.88;2.90;;;;;;;;;;5111703;28;20023;-76
2023/12/30 08:20:49;;;;;;;27.50;3.47;;;;;;;;;;5099424;28;20027;-75
2023/12/30 08:23:15;;;;;;;28.42;3.88;;;;;;;;;;5109823;28;20421;-76
2023/12/30 08:25:41;;;;;;;18.88;2.83;;;;;;;;;;5105444;28;20023;-75
2023/12/30 08:28:07;;;;;;;23.50;3.22;;;;;;;;;;5091005;28;20028;-75
2023/12/30 08:30:33;;;;;;;25.80;2.90;;;;;;;;;;5091073;28;20073;-74
2023/12/30 08:33:03;;;;;;;12.73;2.45;;;;;;;;;;5091324;28;20395;-75
2023/12/30 08:35:29;;;;;;;7.60;1.77;;;;;;;;;;5075382;28;20028;-74
2023/12/30 08:37:55;;;;;;;5.65;1.90;;;;;;;;;;5092485;28;20438;-75
2023/12/30 08:40:21;;;;;;;7.35;1.92;;;;;;;;;;5092128;28;20020;-76
2023/12/30 08:42:47;;;;;;;9.85;1.92;;;;;;;;;;5096407;28;20411;-76
2023/12/30 08:45:18;;;;;;;5.50;1.00;;;;;;;;;;5101834;28;20023;-75
2023/12/30 08:47:45;;;;;;;4.93;1.30;;;;;;;;;;5108425;28;20125;-76
2023/12/30 08:50:11;;;;;;;5.30;1.40;;;;;;;;;;5103838;28;20012;-74
2023/12/30 08:52:37;;;;;;;8.07;2.20;;;;;;;;;;5097633;28;20073;-74
2023/12/30 08:55:09;;;;;;;5.65;1.95;;;;;;;;;;5090465;28;20032;-74
2023/12/30 08:57:35;;;;;;;7.07;1.58;;;;;;;;;;5091565;28;20103;-74
2023/12/30 09:00:01;;;;;;;9.50;1.77;;;;;;;;;;5091474;28;20070;-73
2023/12/30 09:02:28;;;;;;;12.52;1.70;;;;;;;;;;5095204;28;20025;-78
2023/12/30 09:04:56;;;;;;;18.52;2.03;;;;;;;;;;5082837;28;20024;-74
2023/12/30 09:07:22;;;;;;;19.35;2.58;;;;;;;;;;5096139;28;20028;-74
2023/12/30 09:09:48;;;;;;;20.10;2.92;;;;;;;;;;5094767;28;20169;-75
2023/12/30 09:12:14;;;;;;;17.52;2.75;;;;;;;;;;5095311;28;20097;-74
2023/12/30 09:14:40;;;;;;;6.07;1.10;;;;;;;;;;5095894;28;20075;-73
2023/12/30 09:17:06;;;;;;;11.40;1.88;;;;;;;;;;5098310;28;20024;-75
2023/12/30 09:19:32;;;;;;;17.95;7.18;;;;;;;;;;5081799;28;20042;-74
2023/12/30 09:21:58;;;;;;;9.05;2.70;;;;;;;;;;5095051;28;20028;-75
2023/12/30 09:24:24;;;;;;;4.10;1.40;;;;;;;;;;5095430;28;20047;-73
2023/12/30 09:26:50;;;;;;;8.75;1.90;;;;;;;;;;5095305;28;20059;-74
2023/12/30 09:29:17;;;;;;;9.27;1.38;;;;;;;;;;5095109;28;20527;-76
2023/12/30 09:31:43;;;;;;;8.73;1.48;;;;;;;;;;5094680;28;20058;-76
2023/12/30 09:34:09;;;;;;;7.05;1.42;;;;;;;;;;5094167;28;20487;-75
2023/12/30 09:36:36;;;;;;;7.93;1.60;;;;;;;;;;5109115;28;20027;-75
2023/12/30 09:39:02;;;;;;;7.38;1.35;;;;;;;;;;5112141;28;20039;-76
2023/12/30 09:41:31;;;;;;;11.68;1.75;;;;;;;;;;5094741;28;20052;-75
2023/12/30 09:43:59;;;;;;;6.07;2.05;;;;;;;;;;5095161;28;20024;-76
2023/12/30 09:46:25;;;;;;;10.73;2.42;;;;;;;;;;5112058;28;20026;-78
2023/12/30 09:48:53;;;;;;;6.97;1.45;;;;;;;;;;5116441;28;20027;-75
2023/12/30 09:51:19;;;;;;;12.02;1.90;;;;;;;;;;5116074;28;20537;-76
2023/12/30 09:53:45;;;;;;;13.95;2.40;;;;;;;;;;5115833;28;20031;-75
2023/12/30 09:56:12;;;;;;;12.30;2.45;;;;;;;;;;5116616;28;20213;-76
2023/12/30 09:58:39;;;;;;;10.55;1.60;;;;;;;;;;5115789;28;20027;-76
2023/12/30 10:01:05;;;;;;;9.32;1.67;;;;;;;;;;5115010;28;20031;-76
2023/12/30 10:03:31;;;;;;;11.30;1.77;;;;;;;;;;5115674;28;20034;-76
2023/12/30 10:06:03;;;;;;;11.43;2.13;;;;;;;;;;5115634;28;20025;-75
2023/12/30 10:08:29;;;;;;;15.13;2.38;;;;;;;;;;5115595;28;20022;-76
2023/12/30 10:10:57;;;;;;;13.68;2.72;;;;;;;;;;5117663;28;20027;-74
2023/12/30 10:13:26;;;;;;;8.30;2.10;;;;;;;;;;5096953;28;20393;-74
2023/12/30 10:15:52;;;;;;;11.93;2.50;;;;;;;;;;5120584;28;20260;-75
2023/12/30 10:18:19;;;;;;;17.33;2.75;;;;;;;;;;5119227;28;20034;-74
2023/12/30 10:20:46;;;;;;;14.77;2.70;;;;;;;;;;5115131;28;20107;-75
2023/12/30 10:23:12;;;;;;;21.13;3.00;;;;;;;;;;5115231;28;20039;-76
2023/12/30 10:25:39;;;;;;;16.65;5.05;;;;;;;;;;5116947;28;20424;-79
2023/12/30 10:28:06;;;;;;;15.57;2.50;;;;;;;;;;5099364;28;20030;-77
2023/12/30 10:30:32;;;;;;;20.58;3.30;;;;;;;;;;5120833;28;20089;-75
2023/12/30 10:33:12;;;;;;;17.75;2.72;;;;;;;;;;5116733;28;20035;-79
2023/12/30 10:35:45;;;;;;;17.83;2.53;;;;;;;;;;5131563;28;20040;-78
2023/12/30 10:38:11;;;;;;;15.93;2.80;;;;;;;;;;5127847;28;20031;-74
2023/12/30 10:40:40;;;;;;;11.93;2.97;;;;;;;;;;5121043;28;20534;-75
2023/12/30 10:43:07;;;;;;;20.60;3.08;;;;;;;;;;5097981;28;20039;-77
2023/12/30 10:45:33;;;;;;;14.07;2.60;;;;;;;;;;5114397;28;20051;-76
2023/12/30 10:48:02;;;;;;;14.88;2.47;;;;;;;;;;5114520;28;20031;-76
2023/12/30 10:50:28;;;;;;;10.75;2.92;;;;;;;;;;5114284;28;20449;-76
2023/12/30 10:53:01;;;;;;;94.68;35.55;;;;;;;;;;5113631;28;20020;-76
2023/12/30 10:55:30;;;;;;;11.77;2.97;;;;;;;;;;5114138;28;20019;-76
2023/12/30 10:58:20;;;;;;;18.10;3.33;;;;;;;;;;5113994;28;20012;-76
2023/12/30 11:00:49;;;;;;;8.75;2.05;;;;;;;;;;5105195;28;20036;-75
2023/12/30 11:03:15;;;;;;;11.85;2.03;;;;;;;;;;5098123;28;20031;-76
2023/12/30 11:05:44;;;;;;;10.25;2.08;;;;;;;;;;5113935;28;20023;-76
2023/12/30 11:08:10;;;;;;;11.52;2.35;;;;;;;;;;5114099;28;20023;-76
2023/12/30 11:10:36;;;;;;;6.45;1.60;;;;;;;;;;5113665;28;20027;-74
2023/12/30 11:13:06;;;;;;;9.90;2.00;;;;;;;;;;5113515;28;20038;-75
2023/12/30 11:15:32;;;;;;;10.32;2.10;;;;;;;;;;5113382;28;20032;-75
2023/12/30 11:17:58;;;;;;;10.00;1.85;;;;;;;;;;5114011;28;20026;-77
2023/12/30 11:20:25;;;;;;;8.63;1.85;;;;;;;;;;5114281;28;20023;-74
2023/12/30 11:22:52;;;;;;;9.95;1.83;;;;;;;;;;5121141;28;20328;-76
2023/12/30 11:25:19;;;;;;;4.10;1.52;;;;;;;;;;5125631;28;20019;-75
2023/12/30 11:27:49;;;;;;;9.93;1.77;;;;;;;;;;5126280;28;20043;-74
2023/12/30 11:30:16;;;;;;;10.82;2.00;;;;;;;;;;5121376;28;20042;-75
2023/12/30 11:32:45;;;;;;;6.97;2.10;;;;;;;;;;5119520;28;20497;-75
2023/12/30 11:35:12;;;;;;;7.97;1.77;;;;;;;;;;5105860;28;20043;-75
2023/12/30 11:37:40;;;;;;;11.02;1.90;;;;;;;;;;5110378;28;20024;-75
2023/12/30 11:40:09;;;;;;;14.43;2.90;;;;;;;;;;5129131;28;20030;-77
2023/12/30 11:42:35;;;;;;;9.82;3.40;;;;;;;;;;5135553;28;20015;-76
2023/12/30 11:45:02;;;;;;;9.45;1.92;;;;;;;;;;5135456;28;20050;-76
2023/12/30 11:47:30;;;;;;;12.75;2.53;;;;;;;;;;5135494;28;20094;-76
2023/12/30 11:50:08;;;;;;;15.50;3.13;;;;;;;;;;5130567;28;20012;-76
2023/12/30 11:52:37;;;;;;;14.57;2.88;;;;;;;;;;5127590;28;20015;-76
2023/12/30 11:55:03;;;;;;;15.25;2.65;;;;;;;;;;5113132;28;20035;-75
2023/12/30 11:57:33;;;;;;;12.45;2.30;;;;;;;;;;5111656;28;20019;-76
2023/12/30 11:59:59;;;;;;;16.15;3.83;;;;;;;;;;5111640;28;20043;-76
2023/12/30 12:02:28;;;;;;;19.25;2.70;;;;;;;;;;5112230;28;20042;-77
2023/12/30 12:04:54;;;;;;;16.77;2.42;;;;;;;;;;5092393;28;20020;-75
2023/12/30 12:07:20;;;;;;;15.98;2.72;;;;;;;;;;5111802;28;20012;-75
2023/12/30 12:09:46;;;;;;;20.42;3.03;;;;;;;;;;5111218;28;20051;-75
2023/12/30 12:12:12;;;;;;;46.92;18.25;;;;;;;;;;5112931;28;20447;-75
2023/12/30 12:14:38;;;;;;;19.10;3.42;;;9.40;84.60;;;;;;5112396;28;20023;-74
2023/12/30 12:17:05;;;;;;;22.67;3.13;;;7.80;99.90;;;;;;5112402;28;20475;-75
2023/12/30 12:19:31;;;;;;;25.85;4.40;;;7.70;99.90;;;;;;5112510;28;20476;-75
2023/12/30 12:22:00;;;;;;;21.15;2.80;;;7.80;99.90;;;;;;5112408;28;20161;-75
2023/12/30 12:24:26;;;;;;;17.92;2.58;;;7.80;99.90;;;;;;5112546;28;20039;-75
2023/12/30 12:26:52;;;;;;;17.77;3.40;;;7.70;99.90;;;;;;5112829;28;20390;-74
2023/12/30 12:29:18;;;;;;;27.80;6.13;;;7.70;99.90;;;;;;5096669;28;20386;-75
2023/12/30 12:31:45;;;;;;;19.80;2.90;;;7.60;99.90;;;;;;5111960;28;20015;-77
2023/12/30 12:34:24;;;;;;;19.67;3.35;;;7.70;99.90;;;;;;5112434;28;20026;-75
2023/12/30 12:36:50;;;;;;;16.88;3.15;;;7.70;99.90;;;;;;5115306;28;20099;-74
2023/12/30 12:39:19;;;;;;;18.20;3.15;;;7.60;99.90;;;;;;5095424;28;20461;-75
2023/12/30 12:41:45;;;;;;;20.35;3.10;;;7.70;99.90;;;;;;5111487;28;20082;-75
2023/12/30 12:44:11;;;;;;;19.73;3.35;;;7.70;99.90;;;;;;5109668;28;20506;-74
2023/12/30 12:46:37;;;;;;;25.50;3.72;;;7.60;99.90;;;;;;5090773;28;20078;-76
2023/12/30 12:49:03;;;;;;;28.38;3.90;;;7.80;99.90;;;;;;5091544;28;20032;-75
2023/12/30 12:51:32;;;;;;;18.73;3.20;;;7.80;99.90;;;;;;5090945;28;20445;-74
2023/12/30 12:53:57;;;;;;;20.00;3.72;;;7.70;99.90;;;;;;5091479;28;20012;-75
2023/12/30 12:56:23;;;;;;;24.88;3.75;;;7.70;99.90;;;;;;5091469;28;20024;-75
2023/12/30 12:58:49;;;;;;;21.02;3.95;;;7.60;99.90;;;;;;5091383;28;20035;-76
2023/12/30 13:01:15;;;;;;;25.13;3.47;;;7.70;99.90;;;;;;5092222;28;20016;-74
2023/12/30 13:03:40;;;;;;;22.98;3.83;;;7.70;99.90;;;;;;5090768;28;20028;-74
2023/12/30 13:06:12;;;;;;;26.13;3.78;;;7.80;99.90;;;;;;5099208;28;20020;-74
2023/12/30 13:08:38;;;;;;;22.55;2.95;;;7.70;99.90;;;;;;5110624;28;20059;-74
2023/12/30 13:11:04;;;;;;;21.98;4.60;;;7.80;99.90;;;;;;5104717;28;20103;-76
2023/12/30 13:13:30;;;;;;;23.42;3.67;;;7.80;99.90;;;;;;5089843;28;20113;-75
2023/12/30 13:15:59;;;;;;;28.45;4.38;;;7.70;99.90;;;;;;5096939;28;20058;-77
2023/12/30 13:18:25;;;;;;;24.70;3.50;;;7.80;99.90;;;;;;5111786;28;20152;-78
2023/12/30 13:20:50;;;;;;;26.48;3.30;;;7.80;99.90;;;;;;5113886;28;20023;-77
2023/12/30 13:23:16;;;;;;;25.50;3.28;;;7.90;99.90;;;;;;5114127;28;20024;-79
2023/12/30 13:25:42;;;;;;;26.38;3.72;;;7.90;99.90;;;;;;5115543;28;20063;-79
2023/12/30 13:28:08;;;;;;;35.10;6.05;;;7.90;99.90;;;;;;5114317;28;20012;-79
2023/12/30 13:30:34;;;;;;;23.85;3.63;;;8.00;99.90;;;;;;5112047;28;20045;-76
2023/12/30 13:33:03;;;;;;;24.20;4.82;;;8.10;99.90;;;;;;5111351;28;20061;-77
2023/12/30 13:35:33;;;;;;;28.70;4.40;;;8.20;99.90;;;;;;5112050;28;20107;-79
2023/12/30 13:37:59;;;;;;;30.42;4.03;;;8.40;99.90;;;;;;5111778;28;20016;-79
2023/12/30 13:40:25;;;;;;;32.95;5.40;;;8.50;99.90;;;;;;5114917;28;20030;-77
2023/12/30 13:42:53;;;;;;;32.38;5.63;;;8.60;99.90;;;;;;5114217;28;20051;-80
2023/12/30 13:45:20;;;;;;;30.08;3.25;;;8.50;99.90;;;;;;5115814;28;20034;-79
2023/12/30 13:50:18;;;;;;;21.42;3.42;;;8.60;99.90;;;;;;5115791;28;20027;-77
2023/12/30 13:52:46;;;;;;;17.65;2.88;;;8.60;99.90;;;;;;5115212;28;20030;-75
2023/12/30 13:55:16;;;;;;;22.35;2.80;;;8.50;99.90;;;;;;5115715;28;20031;-78
2023/12/30 13:57:42;;;;;;;28.75;4.07;;;8.50;99.90;;;;;;5115505;28;20020;-76
2023/12/30 14:00:10;;;;;;;27.58;3.35;;;8.60;99.90;;;;;;5118123;28;20092;-77
2023/12/30 14:02:39;;;;;;;26.58;3.83;;;8.50;99.70;;;;;;5120071;28;20024;-79
2023/12/30 14:05:17;;;;;;;24.30;2.83;;;8.50;99.90;;;;;;5117611;28;20024;-81
2023/12/30 14:07:43;;;;;;;17.23;2.70;;;8.50;99.90;;;;;;5117071;28;20035;-77
2023/12/30 14:10:11;;;;;;;19.13;2.92;;;8.50;99.90;;;;;;5116867;28;20032;-76
2023/12/30 14:12:39;;;;;;;24.63;3.67;;;8.50;99.90;;;;;;5098829;28;20440;-76
2023/12/30 14:15:09;;;;;;;25.65;3.88;;;8.50;99.90;;;;;;5116281;28;20024;-77